sensor_id;sensor_type;location;lat;lon;timestamp;temperature;humidity
5218;DHT22;26539;51.064;6.346;2023-05-07T00:01:12;15.80;1.00
5218;DHT22;26539;51.064;6.346;2023-05-07T00:03:38;15.80;1.00
5218;DHT22;26539;51.064;6.346;2023-05-07T00:06:04;15.80;1.00
5218;DHT22;26539;51.064;6.346;2023-05-07T00:08:29;15.90;1.00
5218;DHT22;26539;51.064;6.346;2023-05-07T00:10:55;15.90;1.00
5218;DHT22;26539;51.064;6.346;2023-05-07T00:13:21;15.90;1.00
5218;DHT22;26539;51.064;6.346;2023-05-07T00:15:46;15.90;1.00
5218;DHT22;26539;51.064;6.346;2023-05-07T00:18:12;15.90;1.00
5218;DHT22;26539;51.064;6.346;2023-05-07T00:20:37;15.90;1.00
5218;DHT22;26539;51.064;6.346;2023-05-07T00:23:03;15.90;1.00
5218;DHT22;26539;51.064;6.346;2023-05-07T00:25:28;15.90;1.00
5218;DHT22;26539;51.064;6.346;2023-05-07T00:27:54;15.90;1.00
5218;DHT22;26539;51.064;6.346;2023-05-07T00:30:20;15.90;1.00
5218;DHT22;26539;51.064;6.346;2023-05-07T00:32:45;15.90;1.00
5218;DHT22;26539;51.064;6.346;2023-05-07T00:35:11;15.90;1.00
5218;DHT22;26539;51.064;6.346;2023-05-07T00:37:37;15.90;1.00
5218;DHT22;26539;51.064;6.346;2023-05-07T00:40:03;15.80;1.00
5218;DHT22;26539;51.064;6.346;2023-05-07T00:42:32;15.80;1.00
5218;DHT22;26539;51.064;6.346;2023-05-07T00:44:58;15.80;1.00
5218;DHT22;26539;51.064;6.346;2023-05-07T00:47:25;15.80;1.00
5218;DHT22;26539;51.064;6.346;2023-05-07T00:49:50;15.80;1.00
5218;DHT22;26539;51.064;6.346;2023-05-07T00:52:17;15.70;1.00
5218;DHT22;26539;51.064;6.346;2023-05-07T00:54:45;15.70;1.00
5218;DHT22;26539;51.064;6.346;2023-05-07T00:57:11;15.70;1.00
5218;DHT22;26539;51.064;6.346;2023-05-07T00:59:37;15.70;1.00
5218;DHT22;26539;51.064;6.346;2023-05-07T01:02:03;15.70;1.00
5218;DHT22;26539;51.064;6.346;2023-05-07T01:04:29;15.70;1.00
5218;DHT22;26539;51.064;6.346;2023-05-07T01:06:55;15.70;1.00
5218;DHT22;26539;51.064;6.346;2023-05-07T01:09:24;15.60;1.00
5218;DHT22;26539;51.064;6.346;2023-05-07T01:11:50;15.60;1.00
5218;DHT22;26539;51.064;6.346;2023-05-07T01:14:17;15.60;1.00
5218;DHT22;26539;51.064;6.346;2023-05-07T01:16:42;15.60;1.00
5218;DHT22;26539;51.064;6.346;2023-05-07T01:19:09;15.60;1.00
5218;DHT22;26539;51.064;6.346;2023-05-07T01:21:37;15.60;1.00
5218;DHT22;26539;51.064;6.346;2023-05-07T01:24:04;15.50;1.00
5218;DHT22;26539;51.064;6.346;2023-05-07T01:26:30;15.50;1.00
5218;DHT22;26539;51.064;6.346;2023-05-07T01:28:55;15.50;1.00
5218;DHT22;26539;51.064;6.346;2023-05-07T01:31:21;15.50;1.00
5218;DHT22;26539;51.064;6.346;2023-05-07T01:33:48;15.50;1.00
5218;DHT22;26539;51.064;6.346;2023-05-07T01:36:15;15.50;1.00
5218;DHT22;26539;51.064;6.346;2023-05-07T01:38:43;15.50;1.00
5218;DHT22;26539;51.064;6.346;2023-05-07T01:41:09;15.50;1.00
5218;DHT22;26539;51.064;6.346;2023-05-07T01:43:34;15.40;1.00
5218;DHT22;26539;51.064;6.346;2023-05-07T01:46:01;15.40;1.00
5218;DHT22;26539;51.064;6.346;2023-05-07T01:48:28;15.40;1.00
5218;DHT22;26539;51.064;6.346;2023-05-07T01:50:55;15.40;1.00
5218;DHT22;26539;51.064;6.346;2023-05-07T01:53:20;15.40;1.00
5218;DHT22;26539;51.064;6.346;2023-05-07T01:55:46;15.40;1.00
5218;DHT22;26539;51.064;6.346;2023-05-07T01:58:11;15.30;1.00
5218;DHT22;26539;51.064;6.346;2023-05-07T02:00:37;15.30;1.00
5218;DHT22;26539;51.064;6.346;2023-05-07T02:03:03;15.30;1.00
5218;DHT22;26539;51.064;6.346;2023-05-07T02:05:28;15.30;1.00
5218;DHT22;26539;51.064;6.346;2023-05-07T02:07:54;15.20;1.00
5218;DHT22;26539;51.064;6.346;2023-05-07T02:10:19;15.20;1.00
5218;DHT22;26539;51.064;6.346;2023-05-07T02:12:45;15.10;1.00
5218;DHT22;26539;51.064;6.346;2023-05-07T02:15:10;15.10;1.00
5218;DHT22;26539;51.064;6.346;2023-05-07T02:17:39;15.10;1.00
5218;DHT22;26539;51.064;6.346;2023-05-07T02:20:23;15.00;1.00
5218;DHT22;26539;51.064;6.346;2023-05-07T02:22:48;15.00;1.00
5218;DHT22;26539;51.064;6.346;2023-05-07T02:25:14;15.00;1.00
5218;DHT22;26539;51.064;6.346;2023-05-07T02:27:39;15.00;1.00
5218;DHT22;26539;51.064;6.346;2023-05-07T02:30:05;14.90;1.00
5218;DHT22;26539;51.064;6.346;2023-05-07T02:32:31;14.90;1.00
5218;DHT22;26539;51.064;6.346;2023-05-07T02:34:56;14.90;1.00
5218;DHT22;26539;51.064;6.346;2023-05-07T02:37:22;14.90;1.00
5218;DHT22;26539;51.064;6.346;2023-05-07T02:39:47;14.90;1.00
5218;DHT22;26539;51.064;6.346;2023-05-07T02:42:13;14.90;1.00
5218;DHT22;26539;51.064;6.346;2023-05-07T02:44:38;14.90;1.00
5218;DHT22;26539;51.064;6.346;2023-05-07T02:47:04;14.90;1.00
5218;DHT22;26539;51.064;6.346;2023-05-07T02:49:29;14.90;1.00
5218;DHT22;26539;51.064;6.346;2023-05-07T02:51:55;14.90;1.00
5218;DHT22;26539;51.064;6.346;2023-05-07T02:54:21;14.90;1.00
5218;DHT22;26539;51.064;6.346;2023-05-07T02:56:46;14.90;1.00
5218;DHT22;26539;51.064;6.346;2023-05-07T02:59:12;14.90;1.00
5218;DHT22;26539;51.064;6.346;2023-05-07T03:01:37;14.90;1.00
5218;DHT22;26539;51.064;6.346;2023-05-07T03:04:03;14.90;1.00
5218;DHT22;26539;51.064;6.346;2023-05-07T03:06:28;14.90;1.00
5218;DHT22;26539;51.064;6.346;2023-05-07T03:08:54;14.90;1.00
5218;DHT22;26539;51.064;6.346;2023-05-07T03:11:19;14.90;1.00
5218;DHT22;26539;51.064;6.346;2023-05-07T03:13:45;14.90;1.00
5218;DHT22;26539;51.064;6.346;2023-05-07T03:16:11;14.90;1.00
5218;DHT22;26539;51.064;6.346;2023-05-07T03:18:36;14.80;1.00
5218;DHT22;26539;51.064;6.346;2023-05-07T03:21:07;14.80;1.00
5218;DHT22;26539;51.064;6.346;2023-05-07T03:23:33;14.70;1.00
5218;DHT22;26539;51.064;6.346;2023-05-07T03:25:59;14.70;1.00
5218;DHT22;26539;51.064;6.346;2023-05-07T03:28:24;14.70;1.00
5218;DHT22;26539;51.064;6.346;2023-05-07T03:30:50;14.60;1.00
5218;DHT22;26539;51.064;6.346;2023-05-07T03:33:16;14.60;1.00
5218;DHT22;26539;51.064;6.346;2023-05-07T03:35:41;14.60;1.00
5218;DHT22;26539;51.064;6.346;2023-05-07T03:38:07;14.50;1.00
5218;DHT22;26539;51.064;6.346;2023-05-07T03:40:32;14.50;1.00
5218;DHT22;26539;51.064;6.346;2023-05-07T03:42:59;14.50;1.00
5218;DHT22;26539;51.064;6.346;2023-05-07T03:45:25;14.50;1.00
5218;DHT22;26539;51.064;6.346;2023-05-07T03:47:51;14.60;1.00
5218;DHT22;26539;51.064;6.346;2023-05-07T03:50:16;14.50;1.00
5218;DHT22;26539;51.064;6.346;2023-05-07T03:52:42;14.50;1.00
5218;DHT22;26539;51.064;6.346;2023-05-07T03:55:08;14.50;1.00
5218;DHT22;26539;51.064;6.346;2023-05-07T03:57:34;14.60;1.00
5218;DHT22;26539;51.064;6.346;2023-05-07T03:59:59;14.60;1.00
5218;DHT22;26539;51.064;6.346;2023-05-07T04:02:25;14.60;1.00
5218;DHT22;26539;51.064;6.346;2023-05-07T04:04:50;14.60;1.00
5218;DHT22;26539;51.064;6.346;2023-05-07T04:07:16;14.60;1.00
5218;DHT22;26539;51.064;6.346;2023-05-07T04:09:42;14.60;1.00
5218;DHT22;26539;51.064;6.346;2023-05-07T04:12:07;14.70;1.00
5218;DHT22;26539;51.064;6.346;2023-05-07T04:14:33;14.70;1.00
5218;DHT22;26539;51.064;6.346;2023-05-07T04:16:59;14.70;1.00
5218;DHT22;26539;51.064;6.346;2023-05-07T04:19:24;14.70;1.00
5218;DHT22;26539;51.064;6.346;2023-05-07T04:21:50;14.70;1.00
5218;DHT22;26539;51.064;6.346;2023-05-07T04:24:16;14.80;1.00
5218;DHT22;26539;51.064;6.346;2023-05-07T04:26:41;14.80;1.00
5218;DHT22;26539;51.064;6.346;2023-05-07T04:29:07;14.90;1.00
5218;DHT22;26539;51.064;6.346;2023-05-07T04:31:32;14.90;1.00
5218;DHT22;26539;51.064;6.346;2023-05-07T04:33:58;14.90;1.00
5218;DHT22;26539;51.064;6.346;2023-05-07T04:36:24;14.90;1.00
5218;DHT22;26539;51.064;6.346;2023-05-07T04:38:53;14.90;1.00
5218;DHT22;26539;51.064;6.346;2023-05-07T04:41:18;15.00;1.00
5218;DHT22;26539;51.064;6.346;2023-05-07T04:43:44;15.00;1.00
5218;DHT22;26539;51.064;6.346;2023-05-07T04:46:09;15.10;1.00
5218;DHT22;26539;51.064;6.346;2023-05-07T04:48:35;15.20;1.00
5218;DHT22;26539;51.064;6.346;2023-05-07T04:51:00;15.30;1.00
5218;DHT22;26539;51.064;6.346;2023-05-07T04:53:26;15.40;1.00
5218;DHT22;26539;51.064;6.346;2023-05-07T04:55:56;15.40;1.00
5218;DHT22;26539;51.064;6.346;2023-05-07T04:58:22;15.50;99.90
5218;DHT22;26539;51.064;6.346;2023-05-07T05:00:48;15.50;99.90
5218;DHT22;26539;51.064;6.346;2023-05-07T05:03:13;15.50;99.90
5218;DHT22;26539;51.064;6.346;2023-05-07T05:05:39;15.60;99.90
5218;DHT22;26539;51.064;6.346;2023-05-07T05:08:04;15.60;99.90
5218;DHT22;26539;51.064;6.346;2023-05-07T05:10:30;15.70;99.90
5218;DHT22;26539;51.064;6.346;2023-05-07T05:12:55;15.80;99.90
5218;DHT22;26539;51.064;6.346;2023-05-07T05:15:21;15.90;99.90
5218;DHT22;26539;51.064;6.346;2023-05-07T05:17:47;15.90;99.90
5218;DHT22;26539;51.064;6.346;2023-05-07T05:20:12;16.00;99.90
5218;DHT22;26539;51.064;6.346;2023-05-07T05:22:38;16.10;99.90
5218;DHT22;26539;51.064;6.346;2023-05-07T05:25:04;16.10;99.90
5218;DHT22;26539;51.064;6.346;2023-05-07T05:27:29;16.20;99.90
5218;DHT22;26539;51.064;6.346;2023-05-07T05:29:55;16.30;99.90
5218;DHT22;26539;51.064;6.346;2023-05-07T05:32:21;16.40;99.90
5218;DHT22;26539;51.064;6.346;2023-05-07T05:34:47;16.50;99.90
5218;DHT22;26539;51.064;6.346;2023-05-07T05:37:12;16.60;37.60
5218;DHT22;26539;51.064;6.346;2023-05-07T05:39:38;16.70;1.00
5218;DHT22;26539;51.064;6.346;2023-05-07T05:42:03;16.70;1.00
5218;DHT22;26539;51.064;6.346;2023-05-07T05:44:29;16.90;1.00
5218;DHT22;26539;51.064;6.346;2023-05-07T05:46:54;17.00;1.00
5218;DHT22;26539;51.064;6.346;2023-05-07T05:49:22;17.10;99.90
5218;DHT22;26539;51.064;6.346;2023-05-07T05:51:48;17.20;99.90
5218;DHT22;26539;51.064;6.346;2023-05-07T05:54:13;17.40;99.90
5218;DHT22;26539;51.064;6.346;2023-05-07T05:56:40;17.50;1.00
5218;DHT22;26539;51.064;6.346;2023-05-07T05:59:05;17.80;99.90
5218;DHT22;26539;51.064;6.346;2023-05-07T06:01:31;18.30;1.00
5218;DHT22;26539;51.064;6.346;2023-05-07T06:03:57;19.60;1.00
5218;DHT22;26539;51.064;6.346;2023-05-07T06:06:22;21.70;99.90
5218;DHT22;26539;51.064;6.346;2023-05-07T06:08:48;22.30;1.00
5218;DHT22;26539;51.064;6.346;2023-05-07T06:11:14;23.80;1.00
5218;DHT22;26539;51.064;6.346;2023-05-07T06:13:39;28.40;99.90
5218;DHT22;26539;51.064;6.346;2023-05-07T06:16:05;30.60;99.90
5218;DHT22;26539;51.064;6.346;2023-05-07T06:18:31;29.60;99.90
5218;DHT22;26539;51.064;6.346;2023-05-07T06:20:56;28.70;99.90
5218;DHT22;26539;51.064;6.346;2023-05-07T06:23:22;27.70;99.90
5218;DHT22;26539;51.064;6.346;2023-05-07T06:25:51;27.40;99.90
5218;DHT22;26539;51.064;6.346;2023-05-07T06:28:16;27.20;99.90
5218;DHT22;26539;51.064;6.346;2023-05-07T06:30:42;26.60;99.90
5218;DHT22;26539;51.064;6.346;2023-05-07T06:33:08;27.00;99.90
5218;DHT22;26539;51.064;6.346;2023-05-07T06:35:33;29.40;99.90
5218;DHT22;26539;51.064;6.346;2023-05-07T06:37:59;32.40;99.90
5218;DHT22;26539;51.064;6.346;2023-05-07T06:40:25;34.30;99.90
5218;DHT22;26539;51.064;6.346;2023-05-07T06:42:51;33.80;99.90
5218;DHT22;26539;51.064;6.346;2023-05-07T06:45:16;33.30;99.90
5218;DHT22;26539;51.064;6.346;2023-05-07T06:47:42;33.60;99.90
5218;DHT22;26539;51.064;6.346;2023-05-07T06:50:07;34.10;99.90
5218;DHT22;26539;51.064;6.346;2023-05-07T06:52:33;33.90;99.90
5218;DHT22;26539;51.064;6.346;2023-05-07T06:54:59;32.90;99.90
5218;DHT22;26539;51.064;6.346;2023-05-07T06:57:25;31.50;99.90
5218;DHT22;26539;51.064;6.346;2023-05-07T06:59:50;30.40;99.90
5218;DHT22;26539;51.064;6.346;2023-05-07T07:02:16;29.60;99.90
5218;DHT22;26539;51.064;6.346;2023-05-07T07:04:42;29.20;99.90
5218;DHT22;26539;51.064;6.346;2023-05-07T07:07:07;30.00;99.90
5218;DHT22;26539;51.064;6.346;2023-05-07T07:09:33;30.60;99.90
5218;DHT22;26539;51.064;6.346;2023-05-07T07:11:58;31.20;99.90
5218;DHT22;26539;51.064;6.346;2023-05-07T07:14:24;31.80;99.90
5218;DHT22;26539;51.064;6.346;2023-05-07T07:16:49;32.60;99.90
5218;DHT22;26539;51.064;6.346;2023-05-07T07:19:16;33.10;99.90
5218;DHT22;26539;51.064;6.346;2023-05-07T07:21:42;32.90;99.90
5218;DHT22;26539;51.064;6.346;2023-05-07T07:24:07;32.40;99.90
5218;DHT22;26539;51.064;6.346;2023-05-07T07:26:33;31.30;99.90
5218;DHT22;26539;51.064;6.346;2023-05-07T07:28:58;30.60;99.90
5218;DHT22;26539;51.064;6.346;2023-05-07T07:31:24;30.00;99.90
5218;DHT22;26539;51.064;6.346;2023-05-07T07:33:49;29.50;99.90
5218;DHT22;26539;51.064;6.346;2023-05-07T07:36:15;29.20;99.90
5218;DHT22;26539;51.064;6.346;2023-05-07T07:38:41;28.80;99.90
5218;DHT22;26539;51.064;6.346;2023-05-07T07:41:08;28.50;99.90
5218;DHT22;26539;51.064;6.346;2023-05-07T07:43:34;28.30;99.90
5218;DHT22;26539;51.064;6.346;2023-05-07T07:46:00;29.60;99.90
5218;DHT22;26539;51.064;6.346;2023-05-07T07:48:26;29.70;99.90
5218;DHT22;26539;51.064;6.346;2023-05-07T07:50:52;29.20;99.90
5218;DHT22;26539;51.064;6.346;2023-05-07T07:53:18;28.50;99.90
5218;DHT22;26539;51.064;6.346;2023-05-07T07:55:43;28.00;99.90
5218;DHT22;26539;51.064;6.346;2023-05-07T07:58:09;27.60;99.90
5218;DHT22;26539;51.064;6.346;2023-05-07T08:00:35;27.50;99.90
5218;DHT22;26539;51.064;6.346;2023-05-07T08:03:04;27.90;99.90
5218;DHT22;26539;51.064;6.346;2023-05-07T08:05:32;29.50;99.90
5218;DHT22;26539;51.064;6.346;2023-05-07T08:07:58;29.40;99.90
5218;DHT22;26539;51.064;6.346;2023-05-07T08:10:23;30.00;99.90
5218;DHT22;26539;51.064;6.346;2023-05-07T08:12:49;31.80;99.90
5218;DHT22;26539;51.064;6.346;2023-05-07T08:15:16;34.40;99.90
5218;DHT22;26539;51.064;6.346;2023-05-07T08:17:42;35.50;99.90
5218;DHT22;26539;51.064;6.346;2023-05-07T08:20:07;35.00;99.90
5218;DHT22;26539;51.064;6.346;2023-05-07T08:22:36;35.20;99.90
5218;DHT22;26539;51.064;6.346;2023-05-07T08:25:05;36.20;99.90
5218;DHT22;26539;51.064;6.346;2023-05-07T08:27:31;38.00;99.90
5218;DHT22;26539;51.064;6.346;2023-05-07T08:29:57;40.50;99.90
5218;DHT22;26539;51.064;6.346;2023-05-07T08:32:22;40.10;99.90
5218;DHT22;26539;51.064;6.346;2023-05-07T08:34:48;39.70;99.90
5218;DHT22;26539;51.064;6.346;2023-05-07T08:37:13;39.60;99.90
5218;DHT22;26539;51.064;6.346;2023-05-07T08:39:39;39.60;99.90
5218;DHT22;26539;51.064;6.346;2023-05-07T08:42:04;39.00;99.90
5218;DHT22;26539;51.064;6.346;2023-05-07T08:44:34;39.30;99.90
5218;DHT22;26539;51.064;6.346;2023-05-07T08:47:01;38.90;99.90
5218;DHT22;26539;51.064;6.346;2023-05-07T08:49:28;37.70;99.90
5218;DHT22;26539;51.064;6.346;2023-05-07T08:51:54;36.10;99.90
5218;DHT22;26539;51.064;6.346;2023-05-07T08:54:21;34.70;99.90
5218;DHT22;26539;51.064;6.346;2023-05-07T08:56:47;33.30;99.90
5218;DHT22;26539;51.064;6.346;2023-05-07T08:59:12;32.10;99.90
5218;DHT22;26539;51.064;6.346;2023-05-07T09:01:41;31.10;99.90
5218;DHT22;26539;51.064;6.346;2023-05-07T09:04:07;30.50;99.90
5218;DHT22;26539;51.064;6.346;2023-05-07T09:06:33;30.00;99.90
5218;DHT22;26539;51.064;6.346;2023-05-07T09:08:59;29.70;99.90
5218;DHT22;26539;51.064;6.346;2023-05-07T09:11:26;29.60;99.90
5218;DHT22;26539;51.064;6.346;2023-05-07T09:13:56;29.60;99.90
5218;DHT22;26539;51.064;6.346;2023-05-07T09:16:23;29.70;99.90
5218;DHT22;26539;51.064;6.346;2023-05-07T09:18:53;30.10;99.90
5218;DHT22;26539;51.064;6.346;2023-05-07T09:21:20;30.20;99.90
5218;DHT22;26539;51.064;6.346;2023-05-07T09:23:48;30.10;99.90
5218;DHT22;26539;51.064;6.346;2023-05-07T09:26:14;30.20;99.90
5218;DHT22;26539;51.064;6.346;2023-05-07T09:28:41;30.30;99.90
5218;DHT22;26539;51.064;6.346;2023-05-07T09:31:07;30.70;99.90
5218;DHT22;26539;51.064;6.346;2023-05-07T09:33:33;31.50;99.90
5218;DHT22;26539;51.064;6.346;2023-05-07T09:36:02;32.70;99.90
5218;DHT22;26539;51.064;6.346;2023-05-07T09:38:28;33.90;99.90
5218;DHT22;26539;51.064;6.346;2023-05-07T09:41:07;33.60;99.90
5218;DHT22;26539;51.064;6.346;2023-05-07T09:43:34;33.00;99.90
5218;DHT22;26539;51.064;6.346;2023-05-07T09:46:15;32.20;99.90
5218;DHT22;26539;51.064;6.346;2023-05-07T09:48:43;31.70;99.90
5218;DHT22;26539;51.064;6.346;2023-05-07T09:51:20;31.30;99.90
5218;DHT22;26539;51.064;6.346;2023-05-07T09:53:48;31.10;99.90
5218;DHT22;26539;51.064;6.346;2023-05-07T09:56:15;30.90;99.90
5218;DHT22;26539;51.064;6.346;2023-05-07T09:58:42;30.70;99.90
5218;DHT22;26539;51.064;6.346;2023-05-07T10:01:10;30.60;99.90
5218;DHT22;26539;51.064;6.346;2023-05-07T10:03:36;30.70;99.90
5218;DHT22;26539;51.064;6.346;2023-05-07T10:06:03;30.50;99.90
5218;DHT22;26539;51.064;6.346;2023-05-07T10:08:30;30.50;99.90
5218;DHT22;26539;51.064;6.346;2023-05-07T10:10:56;30.70;99.90
5218;DHT22;26539;51.064;6.346;2023-05-07T10:13:21;30.90;99.90
5218;DHT22;26539;51.064;6.346;2023-05-07T10:15:47;31.10;99.90
5218;DHT22;26539;51.064;6.346;2023-05-07T10:18:13;31.00;99.90
5218;DHT22;26539;51.064;6.346;2023-05-07T10:20:39;31.00;99.90
5218;DHT22;26539;51.064;6.346;2023-05-07T10:23:07;31.10;99.90
5218;DHT22;26539;51.064;6.346;2023-05-07T10:25:33;31.10;99.90
5218;DHT22;26539;51.064;6.346;2023-05-07T10:28:06;31.10;99.90
5218;DHT22;26539;51.064;6.346;2023-05-07T10:33:28;31.10;99.90
5218;DHT22;26539;51.064;6.346;2023-05-07T10:35:58;31.20;99.90
5218;DHT22;26539;51.064;6.346;2023-05-07T10:38:26;31.30;99.90
5218;DHT22;26539;51.064;6.346;2023-05-07T10:40:52;31.30;99.90
5218;DHT22;26539;51.064;6.346;2023-05-07T10:43:17;31.50;99.90
5218;DHT22;26539;51.064;6.346;2023-05-07T10:45:43;31.60;99.90
5218;DHT22;26539;51.064;6.346;2023-05-07T10:48:15;31.60;99.90
5218;DHT22;26539;51.064;6.346;2023-05-07T10:50:44;31.80;99.90
5218;DHT22;26539;51.064;6.346;2023-05-07T10:55:47;31.50;99.90
5218;DHT22;26539;51.064;6.346;2023-05-07T11:00:48;31.50;99.90
5218;DHT22;26539;51.064;6.346;2023-05-07T11:03:14;31.60;99.90
5218;DHT22;26539;51.064;6.346;2023-05-07T11:05:41;31.70;99.90
5218;DHT22;26539;51.064;6.346;2023-05-07T11:08:07;31.60;99.90
5218;DHT22;26539;51.064;6.346;2023-05-07T11:10:54;31.60;99.90
5218;DHT22;26539;51.064;6.346;2023-05-07T11:13:48;31.60;99.90
5218;DHT22;26539;51.064;6.346;2023-05-07T11:16:24;31.40;99.90
5218;DHT22;26539;51.064;6.346;2023-05-07T11:18:51;31.30;99.90
5218;DHT22;26539;51.064;6.346;2023-05-07T11:21:42;31.20;99.90
5218;DHT22;26539;51.064;6.346;2023-05-07T11:24:09;31.20;99.90
5218;DHT22;26539;51.064;6.346;2023-05-07T11:26:48;31.10;99.90
5218;DHT22;26539;51.064;6.346;2023-05-07T11:29:18;30.90;99.90
5218;DHT22;26539;51.064;6.346;2023-05-07T11:31:49;30.50;99.90
5218;DHT22;26539;51.064;6.346;2023-05-07T11:34:24;30.10;99.90
5218;DHT22;26539;51.064;6.346;2023-05-07T11:36:51;29.60;99.90
5218;DHT22;26539;51.064;6.346;2023-05-07T11:39:30;29.20;99.90
5218;DHT22;26539;51.064;6.346;2023-05-07T11:41:58;29.00;99.90
5218;DHT22;26539;51.064;6.346;2023-05-07T11:44:24;28.80;99.90
5218;DHT22;26539;51.064;6.346;2023-05-07T11:46:49;28.60;99.90
5218;DHT22;26539;51.064;6.346;2023-05-07T11:49:16;28.50;99.90
5218;DHT22;26539;51.064;6.346;2023-05-07T11:51:42;28.40;99.90
5218;DHT22;26539;51.064;6.346;2023-05-07T11:54:08;28.40;99.90
5218;DHT22;26539;51.064;6.346;2023-05-07T11:56:36;28.30;99.90
5218;DHT22;26539;51.064;6.346;2023-05-07T11:59:02;28.20;99.90
5218;DHT22;26539;51.064;6.346;2023-05-07T12:01:27;28.10;99.90
5218;DHT22;26539;51.064;6.346;2023-05-07T12:03:53;28.00;99.90
5218;DHT22;26539;51.064;6.346;2023-05-07T12:06:19;28.00;99.90
5218;DHT22;26539;51.064;6.346;2023-05-07T12:08:45;28.00;99.90
5218;DHT22;26539;51.064;6.346;2023-05-07T12:11:22;28.10;99.90
5218;DHT22;26539;51.064;6.346;2023-05-07T12:13:47;28.20;99.90
5218;DHT22;26539;51.064;6.346;2023-05-07T12:16:13;28.30;99.90
5218;DHT22;26539;51.064;6.346;2023-05-07T12:18:39;28.20;99.90
5218;DHT22;26539;51.064;6.346;2023-05-07T12:21:05;28.20;99.90
5218;DHT22;26539;51.064;6.346;2023-05-07T12:23:32;28.20;99.90
5218;DHT22;26539;51.064;6.346;2023-05-07T12:25:59;28.10;99.90
5218;DHT22;26539;51.064;6.346;2023-05-07T12:28:25;28.20;99.90
5218;DHT22;26539;51.064;6.346;2023-05-07T12:30:51;28.30;99.90
5218;DHT22;26539;51.064;6.346;2023-05-07T12:33:24;28.40;99.90
5218;DHT22;26539;51.064;6.346;2023-05-07T12:35:50;28.50;99.90
5218;DHT22;26539;51.064;6.346;2023-05-07T12:38:17;28.70;99.90
5218;DHT22;26539;51.064;6.346;2023-05-07T12:40:44;28.80;99.90
5218;DHT22;26539;51.064;6.346;2023-05-07T12:43:26;29.00;99.90
5218;DHT22;26539;51.064;6.346;2023-05-07T12:45:54;29.20;99.90
5218;DHT22;26539;51.064;6.346;2023-05-07T12:48:21;29.30;99.90
5218;DHT22;26539;51.064;6.346;2023-05-07T12:50:51;29.30;99.90
5218;DHT22;26539;51.064;6.346;2023-05-07T12:53:17;29.30;99.90
5218;DHT22;26539;51.064;6.346;2023-05-07T12:55:47;29.30;99.90
5218;DHT22;26539;51.064;6.346;2023-05-07T12:58:31;29.00;99.90
5218;DHT22;26539;51.064;6.346;2023-05-07T13:01:00;28.70;99.90
5218;DHT22;26539;51.064;6.346;2023-05-07T13:03:30;28.30;99.90
5218;DHT22;26539;51.064;6.346;2023-05-07T13:05:58;27.80;99.90
5218;DHT22;26539;51.064;6.346;2023-05-07T13:08:29;27.40;99.90
5218;DHT22;26539;51.064;6.346;2023-05-07T13:10:56;27.00;99.90
5218;DHT22;26539;51.064;6.346;2023-05-07T13:13:22;26.60;99.90
5218;DHT22;26539;51.064;6.346;2023-05-07T13:15:47;26.20;99.90
5218;DHT22;26539;51.064;6.346;2023-05-07T13:18:13;25.90;99.90
5218;DHT22;26539;51.064;6.346;2023-05-07T13:20:39;25.60;99.90
5218;DHT22;26539;51.064;6.346;2023-05-07T13:23:04;25.30;99.90
5218;DHT22;26539;51.064;6.346;2023-05-07T13:25:30;24.90;99.90
5218;DHT22;26539;51.064;6.346;2023-05-07T13:27:59;24.30;99.90
5218;DHT22;26539;51.064;6.346;2023-05-07T13:30:25;23.50;99.90
5218;DHT22;26539;51.064;6.346;2023-05-07T13:32:51;22.40;99.90
5218;DHT22;26539;51.064;6.346;2023-05-07T13:35:17;21.40;99.90
5218;DHT22;26539;51.064;6.346;2023-05-07T13:37:43;20.70;1.00
5218;DHT22;26539;51.064;6.346;2023-05-07T13:40:09;20.30;1.00
5218;DHT22;26539;51.064;6.346;2023-05-07T13:42:34;20.10;1.00
5218;DHT22;26539;51.064;6.346;2023-05-07T13:45:00;19.90;99.90
5218;DHT22;26539;51.064;6.346;2023-05-07T13:47:26;19.70;1.00
5218;DHT22;26539;51.064;6.346;2023-05-07T13:49:51;19.50;60.00
5218;DHT22;26539;51.064;6.346;2023-05-07T13:52:17;19.50;99.90
5218;DHT22;26539;51.064;6.346;2023-05-07T13:54:43;19.40;1.00
5218;DHT22;26539;51.064;6.346;2023-05-07T13:57:08;19.30;1.00
5218;DHT22;26539;51.064;6.346;2023-05-07T13:59:34;19.30;1.00
5218;DHT22;26539;51.064;6.346;2023-05-07T14:01:59;19.20;99.90
5218;DHT22;26539;51.064;6.346;2023-05-07T14:04:25;19.20;99.90
5218;DHT22;26539;51.064;6.346;2023-05-07T14:06:51;19.30;99.90
5218;DHT22;26539;51.064;6.346;2023-05-07T14:09:16;19.40;99.90
5218;DHT22;26539;51.064;6.346;2023-05-07T14:11:42;19.50;99.90
5218;DHT22;26539;51.064;6.346;2023-05-07T14:14:08;19.60;99.90
5218;DHT22;26539;51.064;6.346;2023-05-07T14:16:36;19.70;99.90
5218;DHT22;26539;51.064;6.346;2023-05-07T14:19:01;19.90;99.90
5218;DHT22;26539;51.064;6.346;2023-05-07T14:21:27;20.00;99.90
5218;DHT22;26539;51.064;6.346;2023-05-07T14:23:53;20.10;1.00
5218;DHT22;26539;51.064;6.346;2023-05-07T14:26:18;20.20;1.00
5218;DHT22;26539;51.064;6.346;2023-05-07T14:28:44;20.30;1.00
5218;DHT22;26539;51.064;6.346;2023-05-07T14:31:12;20.40;99.90
5218;DHT22;26539;51.064;6.346;2023-05-07T14:33:37;20.50;99.90
5218;DHT22;26539;51.064;6.346;2023-05-07T14:36:03;20.50;99.90
5218;DHT22;26539;51.064;6.346;2023-05-07T14:38:29;20.70;99.90
5218;DHT22;26539;51.064;6.346;2023-05-07T14:40:55;20.80;99.90
5218;DHT22;26539;51.064;6.346;2023-05-07T14:43:21;20.90;34.20
5218;DHT22;26539;51.064;6.346;2023-05-07T14:45:47;21.10;1.00
5218;DHT22;26539;51.064;6.346;2023-05-07T14:48:12;21.40;1.00
5218;DHT22;26539;51.064;6.346;2023-05-07T14:50:43;21.60;1.00
5218;DHT22;26539;51.064;6.346;2023-05-07T14:53:08;21.90;1.00
5218;DHT22;26539;51.064;6.346;2023-05-07T14:55:34;22.00;1.00
5218;DHT22;26539;51.064;6.346;2023-05-07T14:58:00;22.20;1.00
5218;DHT22;26539;51.064;6.346;2023-05-07T15:00:26;22.40;1.00
5218;DHT22;26539;51.064;6.346;2023-05-07T15:02:52;22.60;1.00
5218;DHT22;26539;51.064;6.346;2023-05-07T15:05:17;22.70;1.00
5218;DHT22;26539;51.064;6.346;2023-05-07T15:07:44;22.70;99.90
5218;DHT22;26539;51.064;6.346;2023-05-07T15:10:10;22.70;99.90
5218;DHT22;26539;51.064;6.346;2023-05-07T15:12:35;22.80;99.90
5218;DHT22;26539;51.064;6.346;2023-05-07T15:15:01;22.80;99.90
5218;DHT22;26539;51.064;6.346;2023-05-07T15:17:26;22.70;99.90
5218;DHT22;26539;51.064;6.346;2023-05-07T15:19:52;22.60;99.90
5218;DHT22;26539;51.064;6.346;2023-05-07T15:22:17;22.50;99.90
5218;DHT22;26539;51.064;6.346;2023-05-07T15:24:43;22.40;99.90
5218;DHT22;26539;51.064;6.346;2023-05-07T15:27:10;22.40;1.00
5218;DHT22;26539;51.064;6.346;2023-05-07T15:29:35;22.30;1.00
5218;DHT22;26539;51.064;6.346;2023-05-07T15:32:01;22.30;1.00
5218;DHT22;26539;51.064;6.346;2023-05-07T15:34:26;22.10;1.00
5218;DHT22;26539;51.064;6.346;2023-05-07T15:36:52;22.10;1.00
5218;DHT22;26539;51.064;6.346;2023-05-07T15:39:18;22.10;1.00
5218;DHT22;26539;51.064;6.346;2023-05-07T15:41:43;22.10;1.00
5218;DHT22;26539;51.064;6.346;2023-05-07T15:44:09;22.20;1.00
5218;DHT22;26539;51.064;6.346;2023-05-07T15:46:35;22.30;1.00
5218;DHT22;26539;51.064;6.346;2023-05-07T15:49:02;22.40;1.00
5218;DHT22;26539;51.064;6.346;2023-05-07T15:51:29;22.50;1.00
5218;DHT22;26539;51.064;6.346;2023-05-07T15:53:56;22.70;1.00
5218;DHT22;26539;51.064;6.346;2023-05-07T15:56:21;22.80;1.00